SKLT/LET METAR and TAF weather

Enter ICAO airport designator
Station Type Date Time Source
SKLT METAR 2022/01/29 00:00 UTC NOAA

SKLT 290000Z 00000KT 9999 SCT015 SCT080 26/25 Q1005 RMK A2969


Station Type Date Time Source
SKLT Decoded METAR 2022/01/29 00:00 UTC NOAA

Leticia / Vasquez Cobo, Colombia (SKLT) 04-10S 069-57W 84M
Jan 28, 2022 - 07:00 PM EST / 2022.01.29 0000 UTC
Wind: Calm:0
Visibility: greater than 7 mile(s):0
Sky conditions: partly cloudy
Temperature: 78 F (26 C)
Dew Point: 77 F (25 C)
Relative Humidity: 94%
Pressure (altimeter): 29.68 in. Hg (1005 hPa)
ob: SKLT 290000Z 00000KT 9999 SCT015 SCT080 26/25 Q1005 RMK A2969
cycle: 0

Station Type Date Time Source
SKLT TAF 2022/01/28 18:34 UTC NOAA

TAF SKLT 281630Z 2818/2918 VRB03KT 9999 SCT015 SCT090
TEMPO 2908/2912 5000 BR BKN010 TX31/2818Z TN22/2910Z

Example: see airport list